createdAt,value
2022-08-28T00:01:24.061Z,20.67
2022-08-28T00:03:27.518Z,20.59
2022-08-28T00:05:36.173Z,20.54
2022-08-28T00:07:42.342Z,20.55
2022-08-28T00:09:49.075Z,20.57
2022-08-28T00:11:52.497Z,20.54
2022-08-28T00:13:56.813Z,20.48
2022-08-28T00:16:02.235Z,20.54
2022-08-28T00:18:07.413Z,20.52
2022-08-28T00:20:13.706Z,20.48
2022-08-28T00:22:18.643Z,20.50
2022-08-28T00:24:22.266Z,20.47
2022-08-28T00:26:43.362Z,20.43
2022-08-28T00:28:46.778Z,20.45
2022-08-28T00:30:52.145Z,20.50
2022-08-28T00:32:58.310Z,20.48
2022-08-28T00:35:01.862Z,20.54
2022-08-28T00:37:05.324Z,20.48
2022-08-28T00:39:10.650Z,20.45
2022-08-28T00:41:15.119Z,20.55
2022-08-28T00:43:27.642Z,20.53
2022-08-28T00:45:35.969Z,20.59
2022-08-28T00:47:42.685Z,20.53
2022-08-28T00:49:50.480Z,20.59
2022-08-28T00:52:11.327Z,20.61
2022-08-28T00:54:19.126Z,20.62
2022-08-28T00:56:23.058Z,20.62
2022-08-28T00:58:26.491Z,20.62
2022-08-28T01:00:36.090Z,20.53
2022-08-28T01:02:39.765Z,20.52
2022-08-28T01:04:43.839Z,20.51
2022-08-28T01:06:51.310Z,20.53
2022-08-28T01:08:55.297Z,20.38
2022-08-28T01:11:05.567Z,20.36
2022-08-28T01:13:09.044Z,20.38
2022-08-28T01:15:17.480Z,20.43
2022-08-28T01:17:24.327Z,20.42
2022-08-28T01:19:32.570Z,20.41
2022-08-28T01:21:43.916Z,20.44
2022-08-28T01:23:54.857Z,20.34
2022-08-28T01:26:00.206Z,20.36
2022-08-28T01:28:08.547Z,20.13
2022-08-28T01:30:15.424Z,20.19
2022-08-28T01:32:32.171Z,20.13
2022-08-28T01:34:36.787Z,20.04
2022-08-28T01:36:41.510Z,19.86
2022-08-28T01:38:49.251Z,19.95
2022-08-28T01:40:57.206Z,19.96
2022-08-28T01:43:10.054Z,19.92
2022-08-28T01:45:17.991Z,19.85
2022-08-28T01:47:22.620Z,19.74
2022-08-28T01:49:29.264Z,19.77
2022-08-28T01:51:33.022Z,19.75
2022-08-28T01:53:40.119Z,19.73
2022-08-28T01:55:44.447Z,19.72
2022-08-28T01:57:52.951Z,19.71
2022-08-28T01:59:56.432Z,19.68
2022-08-28T02:02:00.161Z,19.67
2022-08-28T02:04:04.955Z,19.66
2022-08-28T02:06:08.566Z,19.62
2022-08-28T02:08:12.218Z,19.61
2022-08-28T02:10:16.970Z,19.59
2022-08-28T02:12:20.648Z,19.59
2022-08-28T02:14:28.016Z,19.59
2022-08-28T02:16:31.609Z,19.59
2022-08-28T02:18:35.309Z,19.57
2022-08-28T02:20:38.870Z,19.56
2022-08-28T02:22:42.496Z,19.48
2022-08-28T02:24:46.195Z,19.53
2022-08-28T02:26:49.637Z,19.52
2022-08-28T02:28:53.079Z,19.52
2022-08-28T02:30:57.958Z,19.50
2022-08-28T02:33:01.412Z,19.46
2022-08-28T02:35:05.469Z,19.49
2022-08-28T02:37:15.502Z,19.53
2022-08-28T02:39:18.894Z,19.54
2022-08-28T02:41:22.476Z,19.54
2022-08-28T02:43:26.604Z,19.52
2022-08-28T02:45:30.137Z,19.51
2022-08-28T02:47:35.860Z,19.47
2022-08-28T02:49:40.025Z,19.48
2022-08-28T02:51:44.097Z,19.45
2022-08-28T02:53:47.563Z,19.49
2022-08-28T02:55:51.568Z,19.49
2022-08-28T02:57:55.556Z,19.46
2022-08-28T02:59:59.977Z,19.27
2022-08-28T03:02:06.766Z,19.39
2022-08-28T03:04:11.875Z,19.38
2022-08-28T03:06:15.600Z,19.36
2022-08-28T03:08:19.029Z,19.34
2022-08-28T03:10:23.132Z,19.30
2022-08-28T03:12:26.732Z,19.24
2022-08-28T03:14:30.919Z,19.22
2022-08-28T03:16:35.481Z,19.15
2022-08-28T03:18:39.611Z,19.18
2022-08-28T03:20:44.898Z,19.14
2022-08-28T03:23:14.453Z,19.14
2022-08-28T03:25:18.201Z,19.11
2022-08-28T03:27:21.651Z,19.07
2022-08-28T03:29:25.139Z,19.05
2022-08-28T03:31:33.739Z,18.98
2022-08-28T03:33:37.867Z,18.89
2022-08-28T03:35:47.382Z,18.93
2022-08-28T03:37:50.802Z,18.91
2022-08-28T03:39:54.336Z,18.80
2022-08-28T03:41:57.887Z,18.86
2022-08-28T03:44:02.822Z,18.81
2022-08-28T03:46:07.693Z,18.75
2022-08-28T03:48:11.299Z,18.62
2022-08-28T03:50:15.080Z,18.65
2022-08-28T03:52:19.877Z,18.61
2022-08-28T03:54:23.443Z,18.55
2022-08-28T03:56:28.786Z,18.51
2022-08-28T03:58:32.426Z,18.49
2022-08-28T04:00:36.090Z,18.48
2022-08-28T04:02:39.571Z,18.46
2022-08-28T04:04:42.949Z,18.45
2022-08-28T04:06:46.498Z,18.43
2022-08-28T04:08:51.841Z,18.46
2022-08-28T04:10:55.514Z,18.52
2022-08-28T04:12:58.947Z,18.48
2022-08-28T04:15:02.566Z,18.49
2022-08-28T04:17:11.268Z,18.40
2022-08-28T04:19:17.590Z,18.34
2022-08-28T04:21:23.569Z,18.28
2022-08-28T04:23:27.278Z,18.29
2022-08-28T04:25:32.674Z,18.31
2022-08-28T04:27:36.377Z,18.43
2022-08-28T04:29:39.750Z,18.40
2022-08-28T04:31:43.247Z,18.44
2022-08-28T04:33:46.726Z,18.52
2022-08-28T04:35:52.176Z,18.44
2022-08-28T04:37:58.703Z,18.36
2022-08-28T04:40:02.776Z,18.42
2022-08-28T04:42:07.797Z,18.35
2022-08-28T04:44:11.518Z,18.19
2022-08-28T04:46:15.987Z,18.22
2022-08-28T04:48:19.867Z,18.14
2022-08-28T04:50:23.299Z,18.09
2022-08-28T04:52:27.479Z,18.01
2022-08-28T04:54:32.731Z,17.87
2022-08-28T04:56:36.060Z,18.18
2022-08-28T04:58:42.444Z,18.19
2022-08-28T05:00:48.605Z,18.29
2022-08-28T05:02:52.303Z,18.36
2022-08-28T05:04:55.960Z,18.37
2022-08-28T05:06:59.386Z,18.49
2022-08-28T05:09:05.368Z,18.40
2022-08-28T05:11:14.617Z,18.42
2022-08-28T05:13:36.969Z,18.17
2022-08-28T05:15:42.345Z,18.23
2022-08-28T05:17:47.682Z,18.12
2022-08-28T05:19:52.277Z,18.07
2022-08-28T05:21:56.176Z,18.05
2022-08-28T05:23:59.598Z,17.99
2022-08-28T05:26:03.079Z,18.04
2022-08-28T05:28:09.860Z,18.01
2022-08-28T05:30:15.821Z,17.91
2022-08-28T05:32:20.747Z,17.87
2022-08-28T05:34:24.377Z,17.91
2022-08-28T05:36:32.452Z,17.88
2022-08-28T05:38:37.365Z,17.84
2022-08-28T05:40:44.936Z,17.86
2022-08-28T05:42:48.629Z,17.93
2022-08-28T05:44:54.706Z,17.91
2022-08-28T05:46:58.445Z,17.87
2022-08-28T05:49:06.621Z,17.84
2022-08-28T05:51:14.843Z,17.83
2022-08-28T05:53:18.291Z,17.77
2022-08-28T05:55:21.811Z,17.76
2022-08-28T05:57:25.232Z,17.77
2022-08-28T05:59:28.630Z,17.79
2022-08-28T06:01:33.989Z,17.89
2022-08-28T06:03:38.452Z,17.85
2022-08-28T06:05:43.797Z,18.03
2022-08-28T06:07:47.247Z,18.21
2022-08-28T06:09:50.811Z,18.26
2022-08-28T06:11:54.829Z,18.29
2022-08-28T06:14:02.627Z,18.32
2022-08-28T06:16:06.590Z,18.34
2022-08-28T06:18:12.606Z,18.39
2022-08-28T06:20:16.198Z,18.28
2022-08-28T06:22:20.955Z,18.33
2022-08-28T06:24:24.472Z,18.44
2022-08-28T06:26:28.231Z,18.36
2022-08-28T06:28:31.669Z,18.32
2022-08-28T06:30:37.339Z,18.33
2022-08-28T06:32:43.547Z,18.52
2022-08-28T06:34:46.981Z,18.43
2022-08-28T06:36:53.800Z,18.48
2022-08-28T06:39:00.512Z,18.61
2022-08-28T06:41:10.023Z,18.73
2022-08-28T06:43:14.399Z,18.84
2022-08-28T06:45:17.944Z,18.89
2022-08-28T06:47:21.707Z,18.89
2022-08-28T06:49:25.218Z,18.81
2022-08-28T06:51:28.687Z,18.76
2022-08-28T06:53:32.110Z,18.88
2022-08-28T06:55:37.046Z,18.85
2022-08-28T06:57:40.800Z,18.88
2022-08-28T06:59:44.289Z,18.80
2022-08-28T07:01:47.881Z,18.73
2022-08-28T07:03:53.507Z,18.73
2022-08-28T07:05:57.841Z,18.71
2022-08-28T07:08:01.691Z,18.69
2022-08-28T07:10:05.880Z,18.80
2022-08-28T07:12:10.742Z,18.95
2022-08-28T07:14:14.239Z,19.12
2022-08-28T07:16:20.143Z,19.13
2022-08-28T07:18:23.598Z,19.07
2022-08-28T07:20:27.044Z,19.08
2022-08-28T07:22:31.011Z,18.93
2022-08-28T07:24:34.548Z,18.85
2022-08-28T07:26:40.791Z,18.97
2022-08-28T07:28:45.753Z,18.92
2022-08-28T07:30:58.111Z,19.09
2022-08-28T07:33:01.557Z,19.24
2022-08-28T07:35:05.623Z,19.36
2022-08-28T07:37:14.714Z,19.36
2022-08-28T07:39:19.429Z,19.57
2022-08-28T07:41:26.858Z,19.56
2022-08-28T07:43:47.783Z,19.40
2022-08-28T07:45:59.780Z,19.26
2022-08-28T07:48:09.495Z,19.18
2022-08-28T07:50:15.716Z,19.21
2022-08-28T07:52:19.268Z,19.31
2022-08-28T07:54:23.086Z,19.37
2022-08-28T07:56:28.701Z,19.37
2022-08-28T07:58:32.863Z,19.39
2022-08-28T08:00:36.354Z,19.35
2022-08-28T08:02:41.208Z,19.34
2022-08-28T08:04:44.714Z,19.61
2022-08-28T08:06:48.532Z,19.91
2022-08-28T08:08:51.998Z,19.94
2022-08-28T08:11:00.490Z,19.62
2022-08-28T08:13:05.111Z,19.81
2022-08-28T08:15:12.088Z,19.79
2022-08-28T08:17:15.505Z,19.90
2022-08-28T08:19:20.364Z,20.11
2022-08-28T08:21:27.165Z,20.06
2022-08-28T08:23:34.735Z,20.18
2022-08-28T08:25:38.192Z,20.16
2022-08-28T08:27:43.143Z,20.02
2022-08-28T08:29:46.692Z,20.07
2022-08-28T08:31:57.400Z,19.99
2022-08-28T08:34:03.671Z,20.15
2022-08-28T08:36:09.888Z,20.25
2022-08-28T08:38:13.362Z,20.35
2022-08-28T08:40:19.550Z,20.54
2022-08-28T08:42:26.679Z,20.40
2022-08-28T08:44:34.221Z,20.39
2022-08-28T08:46:44.936Z,20.21
2022-08-28T08:48:48.761Z,20.13
2022-08-28T08:50:52.496Z,20.06
2022-08-28T08:53:15.865Z,20.11
2022-08-28T08:55:28.161Z,20.07
2022-08-28T08:57:33.521Z,20.22
2022-08-28T08:59:38.947Z,20.27
2022-08-28T09:01:50.810Z,20.36
2022-08-28T09:04:01.099Z,20.37
2022-08-28T09:06:06.843Z,20.50
2022-08-28T09:08:24.055Z,20.65
2022-08-28T09:10:36.427Z,20.66
2022-08-28T09:12:51.228Z,20.38
2022-08-28T09:15:04.989Z,20.58
2022-08-28T09:17:11.331Z,20.77
2022-08-28T09:19:20.142Z,20.67
2022-08-28T09:21:29.519Z,20.97
2022-08-28T09:23:34.588Z,21.16
2022-08-28T09:25:50.996Z,21.18
2022-08-28T09:27:55.481Z,21.03
2022-08-28T09:30:07.669Z,21.20
2022-08-28T09:32:22.364Z,21.29
2022-08-28T09:34:31.310Z,21.25
2022-08-28T09:36:38.985Z,21.34
2022-08-28T09:38:43.811Z,21.42
2022-08-28T09:41:03.779Z,21.52
2022-08-28T09:43:27.807Z,21.76
2022-08-28T09:45:31.301Z,21.79
2022-08-28T09:47:46.181Z,21.67
2022-08-28T09:49:50.461Z,21.70
2022-08-28T09:51:53.952Z,21.84
2022-08-28T09:54:08.049Z,21.95
2022-08-28T09:56:17.756Z,22.02
2022-08-28T09:58:22.195Z,22.06
2022-08-28T10:00:25.790Z,22.08
2022-08-28T10:02:41.799Z,22.18
2022-08-28T10:04:55.593Z,22.23
2022-08-28T10:07:04.928Z,22.25
2022-08-28T10:09:22.962Z,22.49
2022-08-28T10:11:34.186Z,22.53
2022-08-28T10:13:50.950Z,22.59
2022-08-28T10:16:03.722Z,22.65
2022-08-28T10:18:19.583Z,22.77
2022-08-28T10:20:31.262Z,22.73
2022-08-28T10:22:42.701Z,22.89
2022-08-28T10:25:02.343Z,22.85
2022-08-28T10:27:14.632Z,23.02
2022-08-28T10:29:34.348Z,23.11
2022-08-28T10:31:47.291Z,23.13
2022-08-28T10:34:04.765Z,23.24
2022-08-28T10:36:32.100Z,23.28
2022-08-28T10:38:42.875Z,23.30
2022-08-28T10:40:56.479Z,23.20
2022-08-28T10:43:04.698Z,23.44
2022-08-28T10:45:15.119Z,23.59
2022-08-28T10:47:23.084Z,23.65
2022-08-28T10:49:38.202Z,23.67
2022-08-28T10:51:47.510Z,23.66
2022-08-28T10:53:55.852Z,23.76
2022-08-28T10:56:04.428Z,23.93
2022-08-28T10:58:24.944Z,24.09
2022-08-28T11:00:29.199Z,24.11
2022-08-28T11:02:33.375Z,24.17
2022-08-28T11:04:37.485Z,24.12
2022-08-28T11:06:47.770Z,24.12
2022-08-28T11:08:54.371Z,24.46
2022-08-28T11:11:01.962Z,24.59
2022-08-28T11:13:07.435Z,24.70
2022-08-28T11:15:43.757Z,24.87
2022-08-28T11:17:48.438Z,24.71
2022-08-28T11:20:10.662Z,24.91
2022-08-28T11:22:18.829Z,24.86
2022-08-28T11:24:43.829Z,24.86
2022-08-28T11:27:00.030Z,24.73
2022-08-28T11:29:04.130Z,24.62
2022-08-28T11:31:31.401Z,24.78
2022-08-28T11:33:39.738Z,24.91
2022-08-28T11:35:52.166Z,25.17
2022-08-28T11:37:56.968Z,25.30
2022-08-28T11:40:15.313Z,25.14
2022-08-28T11:42:38.357Z,25.14
2022-08-28T11:44:44.801Z,25.08
2022-08-28T11:46:49.612Z,25.08
2022-08-28T11:48:54.432Z,25.27
2022-08-28T11:51:02.270Z,25.61
2022-08-28T11:53:29.468Z,25.60
2022-08-28T11:55:51.554Z,25.36
2022-08-28T12:00:21.102Z,25.96
2022-08-28T12:02:49.159Z,26.28
2022-08-28T12:04:52.741Z,26.26
2022-08-28T12:07:23.551Z,26.46
2022-08-28T12:09:44.553Z,26.27
2022-08-28T12:12:06.944Z,25.93
2022-08-28T12:14:11.814Z,25.64
2022-08-28T12:16:15.754Z,25.44
2022-08-28T12:18:49.137Z,25.36
2022-08-28T12:21:04.082Z,25.35
2022-08-28T12:23:45.928Z,25.52
2022-08-28T12:25:51.770Z,25.52
2022-08-28T12:27:56.149Z,25.92
2022-08-28T12:30:01.301Z,26.23
2022-08-28T12:32:27.135Z,26.48
2022-08-28T12:34:43.593Z,26.54
2022-08-28T12:36:52.028Z,26.40
2022-08-28T12:38:58.034Z,26.50
2022-08-28T12:41:03.501Z,26.69
2022-08-28T12:43:10.012Z,26.62
2022-08-28T12:45:20.268Z,26.96
2022-08-28T12:47:25.548Z,27.19
2022-08-28T12:49:32.904Z,27.25
2022-08-28T12:51:38.914Z,27.51
2022-08-28T12:53:45.894Z,27.51
2022-08-28T12:55:49.526Z,27.62
2022-08-28T12:57:54.817Z,27.64
2022-08-28T13:00:11.058Z,27.73
2022-08-28T13:02:26.519Z,27.45
2022-08-28T13:04:34.489Z,27.33
2022-08-28T13:06:39.877Z,27.20
2022-08-28T13:08:43.340Z,27.18
2022-08-28T13:10:51.204Z,26.96
2022-08-28T13:13:03.230Z,26.73
2022-08-28T13:15:10.421Z,26.93
2022-08-28T13:17:17.440Z,27.02
2022-08-28T13:19:27.890Z,27.13
2022-08-28T13:21:37.189Z,27.23
2022-08-28T13:23:41.400Z,27.24
2022-08-28T13:25:44.880Z,27.24
2022-08-28T13:27:59.151Z,27.25
2022-08-28T13:30:08.531Z,27.53
2022-08-28T13:32:19.023Z,27.72
2022-08-28T13:34:25.875Z,27.83
2022-08-28T13:36:29.860Z,27.71
2022-08-28T13:38:35.382Z,27.74
2022-08-28T13:40:58.525Z,27.77
2022-08-28T13:43:07.410Z,27.82
2022-08-28T13:45:15.082Z,27.67
2022-08-28T13:47:19.967Z,27.63
2022-08-28T13:49:23.753Z,27.66
2022-08-28T13:51:27.526Z,27.70
2022-08-28T13:53:30.996Z,27.78
2022-08-28T13:55:36.087Z,27.80
2022-08-28T13:57:39.660Z,27.84
2022-08-28T13:59:44.549Z,27.63
2022-08-28T14:02:05.956Z,28.04
2022-08-28T14:04:09.810Z,28.20
2022-08-28T14:06:16.794Z,28.62
2022-08-28T14:08:20.260Z,28.87
2022-08-28T14:10:24.087Z,28.93
2022-08-28T14:12:31.419Z,29.06
2022-08-28T14:14:37.259Z,29.20
2022-08-28T14:16:42.490Z,29.40
2022-08-28T14:18:45.966Z,29.36
2022-08-28T14:20:49.476Z,29.13
2022-08-28T14:22:52.968Z,29.00
2022-08-28T14:24:56.476Z,29.02
2022-08-28T14:27:00.261Z,29.11
2022-08-28T14:29:06.370Z,29.01
2022-08-28T14:31:14.210Z,28.80
2022-08-28T14:33:20.520Z,28.72
2022-08-28T14:35:24.422Z,28.84
2022-08-28T14:37:28.461Z,28.89
2022-08-28T14:39:32.112Z,29.00
2022-08-28T14:41:36.052Z,29.09
2022-08-28T14:43:39.640Z,28.87
2022-08-28T14:45:44.002Z,29.00
2022-08-28T14:47:47.471Z,28.99
2022-08-28T14:49:52.714Z,29.03
2022-08-28T14:51:57.062Z,29.11
2022-08-28T14:54:01.923Z,29.17
2022-08-28T14:56:07.572Z,29.08
2022-08-28T14:58:11.559Z,29.10
2022-08-28T15:00:16.475Z,29.14
2022-08-28T15:02:19.921Z,29.27
2022-08-28T15:04:26.058Z,29.39
2022-08-28T15:06:31.332Z,29.35
2022-08-28T15:08:35.393Z,29.49
2022-08-28T15:10:39.741Z,29.40
2022-08-28T15:12:43.182Z,29.32
2022-08-28T15:14:54.563Z,29.30
2022-08-28T15:16:58.769Z,29.47
2022-08-28T15:19:02.661Z,29.61
2022-08-28T15:21:07.608Z,29.68
2022-08-28T15:23:13.837Z,29.76
2022-08-28T15:25:17.669Z,29.04
2022-08-28T15:27:21.613Z,29.46
2022-08-28T15:29:25.315Z,29.37
2022-08-28T15:31:29.516Z,29.37
2022-08-28T15:33:33.061Z,29.44
2022-08-28T15:35:37.192Z,29.35
2022-08-28T15:37:40.580Z,29.29
2022-08-28T15:40:02.979Z,29.27
2022-08-28T15:42:08.450Z,29.23
2022-08-28T15:44:15.042Z,29.23
2022-08-28T15:46:18.615Z,29.48
2022-08-28T15:48:22.117Z,29.46
2022-08-28T15:50:25.576Z,29.21
2022-08-28T15:52:29.203Z,29.31
2022-08-28T15:54:32.889Z,29.34
2022-08-28T15:56:37.705Z,29.50
2022-08-28T15:58:41.297Z,29.31
2022-08-28T16:00:44.752Z,29.13
2022-08-28T16:02:48.216Z,29.28
2022-08-28T16:04:52.708Z,29.27
2022-08-28T16:07:00.443Z,29.42
2022-08-28T16:09:05.319Z,29.43
2022-08-28T16:11:09.029Z,29.21
2022-08-28T16:13:16.171Z,29.09
2022-08-28T16:15:21.436Z,29.08
2022-08-28T16:17:24.992Z,29.17
2022-08-28T16:19:29.338Z,29.19
2022-08-28T16:21:33.587Z,29.21
2022-08-28T16:23:37.386Z,29.13
2022-08-28T16:25:41.917Z,29.19
2022-08-28T16:27:45.530Z,29.03
2022-08-28T16:29:52.971Z,29.02
2022-08-28T16:31:56.810Z,28.74
2022-08-28T16:34:00.427Z,28.74
2022-08-28T16:36:08.311Z,28.73
2022-08-28T16:38:11.914Z,28.67
2022-08-28T16:40:15.660Z,28.40
2022-08-28T16:42:19.131Z,28.11
2022-08-28T16:44:24.464Z,27.93
2022-08-28T16:46:29.328Z,28.01
2022-08-28T16:48:33.131Z,27.79
2022-08-28T16:50:36.622Z,28.03
2022-08-28T16:52:40.483Z,28.05
2022-08-28T16:54:48.653Z,28.11
2022-08-28T16:56:52.731Z,27.96
2022-08-28T16:58:57.025Z,27.88
2022-08-28T17:01:00.918Z,27.78
2022-08-28T17:03:05.798Z,27.76
2022-08-28T17:05:11.687Z,27.65
2022-08-28T17:07:15.143Z,27.62
2022-08-28T17:09:20.801Z,27.59
2022-08-28T17:11:25.243Z,27.53
2022-08-28T17:13:28.758Z,27.31
2022-08-28T17:15:32.362Z,27.04
2022-08-28T17:17:36.341Z,26.88
2022-08-28T17:19:41.194Z,26.75
2022-08-28T17:22:03.805Z,26.68
2022-08-28T17:24:08.222Z,26.55
2022-08-28T17:26:11.692Z,26.22
2022-08-28T17:28:15.571Z,25.91
2022-08-28T17:30:19.536Z,25.85
2022-08-28T17:32:22.938Z,25.81
2022-08-28T17:34:30.090Z,25.62
2022-08-28T17:36:37.057Z,25.49
2022-08-28T17:38:42.407Z,25.52
2022-08-28T17:40:45.837Z,25.44
2022-08-28T17:42:49.235Z,25.28
2022-08-28T17:44:52.604Z,25.17
2022-08-28T17:46:56.013Z,25.05
2022-08-28T17:48:59.933Z,24.90
2022-08-28T17:51:03.482Z,24.82
2022-08-28T17:53:08.833Z,24.81
2022-08-28T17:55:12.303Z,24.79
2022-08-28T17:57:16.631Z,24.73
2022-08-28T17:59:21.068Z,24.80
2022-08-28T18:01:27.218Z,24.64
2022-08-28T18:03:30.796Z,24.66
2022-08-28T18:05:42.138Z,24.65
2022-08-28T18:07:45.572Z,24.57
2022-08-28T18:09:50.531Z,24.52
2022-08-28T18:11:54.162Z,24.45
2022-08-28T18:13:57.644Z,24.42
2022-08-28T18:16:01.257Z,24.50
2022-08-28T18:18:05.219Z,24.54
2022-08-28T18:20:11.474Z,24.56
2022-08-28T18:22:15.129Z,24.41
2022-08-28T18:24:18.831Z,24.37
2022-08-28T18:26:23.715Z,24.20
2022-08-28T18:28:28.220Z,24.09
2022-08-28T18:30:31.690Z,23.96
2022-08-28T18:32:35.248Z,23.80
2022-08-28T18:34:38.675Z,23.89
2022-08-28T18:36:42.654Z,23.90
2022-08-28T18:38:47.112Z,23.90
2022-08-28T18:40:50.972Z,23.76
2022-08-28T18:42:55.750Z,23.81
2022-08-28T18:44:59.475Z,23.81
2022-08-28T18:47:02.981Z,23.87
2022-08-28T18:49:06.999Z,23.78
2022-08-28T18:51:12.324Z,23.90
2022-08-28T18:53:16.443Z,23.81
2022-08-28T18:55:20.635Z,23.73
2022-08-28T18:57:25.164Z,23.67
2022-08-28T18:59:31.807Z,23.56
2022-08-28T19:01:35.397Z,23.39
2022-08-28T19:03:39.021Z,23.37
2022-08-28T19:05:42.930Z,23.02
2022-08-28T19:07:46.412Z,23.18
2022-08-28T19:09:50.182Z,23.11
2022-08-28T19:11:53.724Z,23.11
2022-08-28T19:13:57.200Z,23.06
2022-08-28T19:16:02.107Z,23.08
2022-08-28T19:18:07.023Z,23.21
2022-08-28T19:20:14.796Z,23.17
2022-08-28T19:22:18.714Z,23.02
2022-08-28T19:24:22.503Z,23.12
2022-08-28T19:26:26.523Z,23.03
2022-08-28T19:28:30.111Z,23.09
2022-08-28T19:30:34.601Z,23.16
2022-08-28T19:32:39.406Z,23.11
2022-08-28T19:34:42.797Z,23.17
2022-08-28T19:36:46.548Z,23.00
2022-08-28T19:38:50.753Z,22.87
2022-08-28T19:40:54.809Z,22.78
2022-08-28T19:42:58.205Z,22.62
2022-08-28T19:45:04.422Z,22.52
2022-08-28T19:47:08.086Z,22.52
2022-08-28T19:49:12.984Z,22.49
2022-08-28T19:51:17.476Z,22.41
2022-08-28T19:53:26.446Z,22.48
2022-08-28T19:55:30.307Z,22.53
2022-08-28T19:57:34.271Z,22.47
2022-08-28T19:59:37.776Z,22.40
2022-08-28T20:01:44.841Z,22.51
2022-08-28T20:03:48.701Z,22.53
2022-08-28T20:05:53.577Z,22.44
2022-08-28T20:07:57.047Z,22.59
2022-08-28T20:10:03.188Z,22.49
2022-08-28T20:12:06.881Z,22.69
2022-08-28T20:14:10.277Z,22.87
2022-08-28T20:16:13.947Z,23.00
2022-08-28T20:18:17.949Z,23.09
2022-08-28T20:20:26.719Z,23.11
2022-08-28T20:22:34.351Z,22.79
2022-08-28T20:24:41.978Z,22.92
2022-08-28T20:26:45.642Z,23.11
2022-08-28T20:28:49.166Z,22.97
2022-08-28T20:30:52.875Z,22.99
2022-08-28T20:32:58.341Z,22.84
2022-08-28T20:35:01.852Z,22.72
2022-08-28T20:37:05.407Z,22.74
2022-08-28T20:39:11.443Z,22.71
2022-08-28T20:41:17.343Z,22.79
2022-08-28T20:43:20.895Z,22.90
2022-08-28T20:45:24.462Z,22.85
2022-08-28T20:47:29.194Z,23.00
2022-08-28T20:49:32.763Z,22.99
2022-08-28T20:51:54.474Z,23.10
2022-08-28T20:53:57.909Z,23.13
2022-08-28T20:56:05.170Z,23.06
2022-08-28T20:58:08.598Z,23.09
2022-08-28T21:00:13.893Z,22.87
2022-08-28T21:02:19.691Z,22.62
2022-08-28T21:04:23.305Z,22.67
2022-08-28T21:06:26.755Z,22.82
2022-08-28T21:08:30.161Z,22.85
2022-08-28T21:10:33.634Z,22.84
2022-08-28T21:12:39.973Z,22.71
2022-08-28T21:14:43.854Z,22.73
2022-08-28T21:16:55.061Z,22.59
2022-08-28T21:19:15.091Z,22.51
2022-08-28T21:21:19.668Z,22.52
2022-08-28T21:23:25.182Z,22.28
2022-08-28T21:25:28.667Z,22.07
2022-08-28T21:27:32.096Z,22.18
2022-08-28T21:29:37.006Z,22.24
2022-08-28T21:31:41.848Z,22.24
2022-08-28T21:33:45.246Z,22.29
2022-08-28T21:35:48.877Z,22.23
2022-08-28T21:37:52.484Z,22.18
2022-08-28T21:39:56.335Z,22.29
2022-08-28T21:42:00.482Z,22.18
2022-08-28T21:44:05.420Z,21.93
2022-08-28T21:46:11.684Z,21.59
2022-08-28T21:48:15.305Z,21.35
2022-08-28T21:50:19.005Z,21.38
2022-08-28T21:52:25.703Z,21.23
2022-08-28T21:54:29.451Z,21.01
2022-08-28T21:56:32.920Z,20.95
2022-08-28T21:58:38.101Z,20.86
2022-08-28T22:00:41.525Z,20.87
2022-08-28T22:02:46.894Z,20.73
2022-08-28T22:04:50.457Z,20.59
2022-08-28T22:06:53.898Z,20.58
2022-08-28T22:08:58.076Z,20.47
2022-08-28T22:11:01.624Z,20.40
2022-08-28T22:13:05.137Z,20.28
2022-08-28T22:15:09.087Z,20.26
2022-08-28T22:17:15.018Z,20.36
2022-08-28T22:19:20.169Z,20.23
2022-08-28T22:21:43.222Z,20.30
2022-08-28T22:23:48.003Z,20.30
2022-08-28T22:25:51.467Z,20.21
2022-08-28T22:27:54.909Z,20.38
2022-08-28T22:29:58.612Z,20.42
2022-08-28T22:32:02.041Z,20.50
2022-08-28T22:34:06.095Z,20.48
2022-08-28T22:36:11.275Z,20.51
2022-08-28T22:38:15.504Z,20.44
2022-08-28T22:40:20.148Z,20.39
2022-08-28T22:42:23.616Z,20.39
2022-08-28T22:44:27.197Z,20.36
2022-08-28T22:46:31.245Z,20.41
2022-08-28T22:48:36.998Z,20.51
2022-08-28T22:50:40.421Z,20.49
2022-08-28T22:52:47.405Z,20.52
2022-08-28T22:54:53.043Z,20.25
2022-08-28T22:56:56.717Z,20.31
2022-08-28T22:59:00.245Z,20.38
2022-08-28T23:01:08.139Z,20.32
2022-08-28T23:03:11.894Z,20.28
2022-08-28T23:05:15.578Z,20.27
2022-08-28T23:07:19.130Z,20.33
2022-08-28T23:09:24.025Z,20.25
2022-08-28T23:11:27.610Z,20.14
2022-08-28T23:13:32.765Z,20.13
2022-08-28T23:15:36.259Z,20.18
2022-08-28T23:17:40.996Z,20.14
2022-08-28T23:19:44.595Z,20.00
2022-08-28T23:21:51.203Z,20.01
2022-08-28T23:23:55.496Z,19.99
2022-08-28T23:26:00.324Z,19.88
2022-08-28T23:28:06.582Z,19.85
2022-08-28T23:30:10.868Z,19.73
2022-08-28T23:32:15.033Z,19.63
2022-08-28T23:34:18.499Z,19.48
2022-08-28T23:36:22.413Z,19.50
2022-08-28T23:38:27.535Z,19.66
2022-08-28T23:40:33.039Z,19.60
2022-08-28T23:42:38.050Z,19.54
2022-08-28T23:44:41.755Z,19.55
2022-08-28T23:46:45.575Z,19.54
2022-08-28T23:48:49.951Z,19.54
2022-08-28T23:50:53.804Z,19.52
2022-08-28T23:52:58.441Z,19.50
2022-08-28T23:55:02.520Z,19.49
2022-08-28T23:57:06.974Z,19.55
2022-08-28T23:59:12.100Z,19.50
